Time;durP1;ratioP1;P1;durP2;ratioP2;P2;SDS_P1;SDS_P2;PMS_P1;PMS_P2;Temp;Humidity;BMP_temperature;BMP_pressure;BME280_temperature;BME280_humidity;BME280_pressure;Samples;Min_cycle;Max_cycle;Signal;HPM_P1;HPM_P2
2022/08/17 00:03:04;;;;;;;29.60;25.23;;;22.00;99.90;;;;;;5008402;28;20262;-73
2022/08/17 00:05:59;;;;;;;28.80;24.75;;;21.90;99.90;;;;;;5005876;28;20184;-74
2022/08/17 00:08:52;;;;;;;30.92;26.10;;;21.90;99.90;;;;;;5000962;28;20227;-74
2022/08/17 00:11:42;;;;;;;27.20;24.20;;;21.90;99.90;;;;;;4993270;28;20204;-73
2022/08/17 00:14:29;;;;;;;28.60;24.27;;;21.80;99.90;;;;;;5002079;28;20232;-73
2022/08/17 00:17:15;;;;;;;32.75;27.88;;;21.80;99.90;;;;;;4996787;28;20195;-72
2022/08/17 00:20:00;;;;;;;28.05;25.15;;;21.80;99.90;;;;;;5001690;28;20290;-73
2022/08/17 00:22:50;;;;;;;30.25;27.10;;;21.70;99.90;;;;;;5007318;28;20232;-75
2022/08/17 00:25:37;;;;;;;30.42;26.95;;;21.70;99.90;;;;;;4992322;28;20676;-73
2022/08/17 00:28:25;;;;;;;29.40;26.27;;;21.70;99.90;;;;;;4988612;28;21041;-73
2022/08/17 00:31:14;;;;;;;30.33;27.17;;;21.60;99.90;;;;;;4989256;28;20211;-73
2022/08/17 00:34:01;;;;;;;28.58;25.48;;;21.60;99.90;;;;;;4982144;28;20243;-73
2022/08/17 00:36:47;;;;;;;31.35;26.10;;;21.50;99.90;;;;;;4991637;28;20251;-72
2022/08/17 00:39:38;;;;;;;29.52;25.02;;;21.50;99.90;;;;;;4984836;28;20195;-72
2022/08/17 00:42:24;;;;;;;32.78;26.50;;;21.50;99.90;;;;;;4984913;28;20270;-75
2022/08/17 00:45:13;;;;;;;28.88;25.17;;;21.60;99.90;;;;;;4997265;28;20197;-74
2022/08/17 00:48:01;;;;;;;29.52;25.67;;;21.50;99.90;;;;;;4996847;28;20192;-73
2022/08/17 00:50:57;;;;;;;31.50;26.48;;;21.50;99.90;;;;;;4982223;28;20240;-73
2022/08/17 00:53:47;;;;;;;28.83;25.73;;;21.50;99.90;;;;;;4990479;28;20228;-74
2022/08/17 00:56:41;;;;;;;34.78;26.90;;;21.40;99.90;;;;;;4992895;28;20193;-72
2022/08/17 00:59:45;;;;;;;31.17;26.08;;;21.40;99.90;;;;;;5001187;28;20301;-73
2022/08/17 01:02:34;;;;;;;29.77;25.60;;;21.30;99.90;;;;;;5004589;28;20254;-74
2022/08/17 01:05:22;;;;;;;28.90;25.30;;;21.30;99.90;;;;;;4995638;28;20243;-74
2022/08/17 01:08:11;;;;;;;29.52;23.83;;;21.30;99.90;;;;;;4994151;28;20283;-73
2022/08/17 01:11:04;;;;;;;31.73;25.92;;;21.30;99.90;;;;;;4991017;28;20327;-72
2022/08/17 01:14:02;;;;;;;29.88;24.88;;;21.20;99.90;;;;;;5005499;28;20224;-74
2022/08/17 01:17:02;;;;;;;28.88;25.73;;;21.20;99.90;;;;;;4984679;28;20276;-72
2022/08/17 01:19:49;;;;;;;31.80;25.90;;;21.20;99.90;;;;;;4997017;28;20190;-73
2022/08/17 01:22:38;;;;;;;29.60;26.48;;;21.20;99.90;;;;;;4991214;28;20220;-73
2022/08/17 01:25:24;;;;;;;29.98;26.52;;;21.20;99.90;;;;;;5003417;28;20246;-74
2022/08/17 01:28:10;;;;;;;33.28;26.42;;;21.20;99.90;;;;;;4991014;28;20199;-73
2022/08/17 01:30:56;;;;;;;31.35;26.70;;;21.10;99.90;;;;;;5003499;28;20199;-75
2022/08/17 01:33:44;;;;;;;33.80;26.17;;;21.10;99.90;;;;;;4989568;28;20243;-73
2022/08/17 01:36:47;;;;;;;29.58;26.52;;;21.10;99.90;;;;;;4996385;28;20208;-74
2022/08/17 01:40:06;;;;;;;30.00;26.15;;;21.10;99.90;;;;;;4983857;28;20259;-74
2022/08/17 01:43:09;;;;;;;32.15;27.70;;;21.00;99.90;;;;;;4995717;28;20223;-74
2022/08/17 02:04:23;;;;;;;38.22;27.42;;;20.80;99.90;;;;;;5009500;28;20559;-73
2022/08/17 02:07:12;;;;;;;30.38;26.73;;;20.80;99.90;;;;;;4997343;28;20196;-73
2022/08/17 02:10:04;;;;;;;29.83;26.15;;;20.80;99.90;;;;;;5004258;28;20203;-74
2022/08/17 02:12:51;;;;;;;29.55;26.48;;;20.80;99.90;;;;;;4986416;28;20218;-73
2022/08/17 02:15:40;;;;;;;31.55;25.75;;;20.80;99.90;;;;;;4987773;28;20239;-72
2022/08/17 02:18:27;;;;;;;32.22;26.38;;;20.80;99.90;;;;;;4999896;28;20283;-73
2022/08/17 02:21:18;;;;;;;31.85;25.98;;;20.70;99.90;;;;;;4995500;28;20232;-74
2022/08/17 02:24:07;;;;;;;30.38;25.38;;;20.70;99.90;;;;;;4994647;28;20204;-74
2022/08/17 02:26:57;;;;;;;30.05;26.85;;;20.70;99.90;;;;;;4991319;28;20191;-73
2022/08/17 02:29:45;;;;;;;34.20;27.15;;;20.70;99.90;;;;;;4991362;28;20246;-73
2022/08/17 02:32:31;;;;;;;30.92;26.52;;;20.70;99.90;;;;;;4990866;28;20256;-72
2022/08/17 02:35:21;;;;;;;32.50;25.63;;;20.60;99.90;;;;;;4995857;28;20215;-72
2022/08/17 02:38:07;;;;;;;31.80;25.52;;;20.70;99.90;;;;;;5007652;28;20189;-73
2022/08/17 02:41:00;;;;;;;29.00;25.90;;;20.60;99.90;;;;;;4985922;28;20722;-74
2022/08/17 02:43:46;;;;;;;33.00;26.10;;;20.60;99.90;;;;;;4989406;28;20238;-74
2022/08/17 02:46:32;;;;;;;29.00;25.58;;;20.60;99.90;;;;;;4996652;28;20199;-72
2022/08/17 02:49:20;;;;;;;29.50;25.80;;;20.60;99.90;;;;;;4992708;28;20243;-73
2022/08/17 02:52:06;;;;;;;32.50;26.55;;;20.50;99.90;;;;;;5006958;28;20312;-73
2022/08/17 02:54:53;;;;;;;31.00;25.80;;;20.50;99.90;;;;;;5001428;28;20231;-74
2022/08/17 02:57:50;;;;;;;28.65;25.70;;;20.50;99.90;;;;;;4993620;28;20192;-73
2022/08/17 03:00:42;;;;;;;29.45;26.20;;;20.50;99.90;;;;;;4996314;28;20188;-73
2022/08/17 03:03:30;;;;;;;31.58;26.50;;;20.50;99.90;;;;;;4998686;28;20244;-73
2022/08/17 03:06:15;;;;;;;29.73;25.77;;;20.50;99.90;;;;;;4997044;28;20192;-72
2022/08/17 03:09:00;;;;;;;31.83;26.35;;;20.50;99.90;;;;;;4994198;28;20247;-74
2022/08/17 03:12:13;;;;;;;31.45;27.42;;;20.40;99.90;;;;;;4992925;28;20188;-73
2022/08/17 03:15:03;;;;;;;33.50;27.13;;;20.40;99.90;;;;;;4989660;28;20272;-73
2022/08/17 03:17:51;;;;;;;31.25;27.45;;;20.40;99.90;;;;;;4982181;28;20295;-74
2022/08/17 03:20:35;;;;;;;33.97;29.08;;;20.40;99.90;;;;;;5003209;28;20227;-75
2022/08/17 03:23:22;;;;;;;37.55;30.73;;;20.40;99.90;;;;;;4990892;28;20219;-72
2022/08/17 03:26:09;;;;;;;32.50;28.63;;;20.30;99.90;;;;;;5001383;28;20224;-74
2022/08/17 03:28:55;;;;;;;34.85;29.38;;;20.30;99.90;;;;;;4992845;28;20687;-74
2022/08/17 03:31:40;;;;;;;36.92;30.90;;;20.30;99.90;;;;;;5000367;28;20283;-73
2022/08/17 03:34:24;;;;;;;38.10;29.90;;;20.30;99.90;;;;;;4983945;28;20240;-74
2022/08/17 03:37:11;;;;;;;39.03;31.42;;;20.30;99.90;;;;;;4988735;28;20398;-72
2022/08/17 03:39:57;;;;;;;35.20;31.20;;;20.20;99.90;;;;;;4992721;28;20296;-72
2022/08/17 03:42:43;;;;;;;37.55;31.40;;;20.20;99.90;;;;;;5003472;28;20266;-73
2022/08/17 03:57:50;;;;;;;37.65;30.67;;;20.10;99.90;;;;;;4999139;28;20547;-72
2022/08/17 04:00:36;;;;;;;39.35;31.67;;;20.10;99.90;;;;;;4988869;28;20192;-73
2022/08/17 04:03:22;;;;;;;37.50;31.73;;;20.10;99.90;;;;;;4999098;28;20204;-73
2022/08/17 04:06:06;;;;;;;36.85;30.83;;;20.10;99.90;;;;;;5004813;28;20266;-73
2022/08/17 04:08:56;;;;;;;41.17;31.65;;;20.10;99.90;;;;;;4989424;28;20238;-75
2022/08/17 04:11:42;;;;;;;34.50;30.27;;;20.00;99.90;;;;;;4989678;28;20199;-72
2022/08/17 04:14:35;;;;;;;37.05;31.52;;;20.00;99.90;;;;;;4991662;28;20322;-73
2022/08/17 04:17:21;;;;;;;36.22;31.40;;;20.00;99.90;;;;;;4993840;28;20682;-73
2022/08/17 04:20:09;;;;;;;44.55;33.05;;;20.00;99.90;;;;;;5003764;28;20238;-73
2022/08/17 04:23:18;;;;;;;42.40;31.88;;;19.90;99.90;;;;;;4983709;28;20216;-74
2022/08/17 04:26:04;;;;;;;37.10;31.95;;;19.90;99.90;;;;;;4999084;28;20208;-72
2022/08/17 04:28:50;;;;;;;37.80;31.30;;;19.90;99.90;;;;;;5003173;28;20191;-73
2022/08/17 04:31:41;;;;;;;39.65;32.50;;;19.80;99.90;;;;;;5001743;28;20189;-72
2022/08/17 04:34:27;;;;;;;38.38;32.63;;;19.80;99.90;;;;;;5003631;28;20361;-73
2022/08/17 04:37:18;;;;;;;39.55;33.35;;;19.80;99.90;;;;;;4992134;28;20191;-73
2022/08/17 04:43:15;;;;;;;44.00;33.72;;;19.80;99.90;;;;;;5006294;28;20240;-73
2022/08/17 04:46:03;;;;;;;43.22;34.40;;;19.80;99.90;;;;;;4989527;28;20235;-74
2022/08/17 04:48:54;;;;;;;38.17;32.83;;;19.70;99.90;;;;;;5000986;28;20224;-73
2022/08/17 04:51:47;;;;;;;42.60;33.05;;;19.70;99.90;;;;;;4994017;28;20180;-72
2022/08/17 04:54:32;;;;;;;42.25;33.95;;;19.70;99.90;;;;;;4765704;27;9204155;-74
2022/08/17 04:57:20;;;;;;;43.10;33.70;;;19.70;99.90;;;;;;5085085;28;20205;-72
2022/08/17 05:00:07;;;;;;;37.55;33.38;;;19.70;99.90;;;;;;5066390;28;20243;-73
2022/08/17 05:02:54;;;;;;;43.75;33.33;;;19.70;99.90;;;;;;5061483;28;20228;-73
2022/08/17 05:05:50;;;;;;;39.45;32.95;;;19.70;99.90;;;;;;5063453;28;20235;-73
2022/08/17 05:08:35;;;;;;;40.17;33.50;;;19.70;99.90;;;;;;5058536;28;20284;-74
2022/08/17 05:11:27;;;;;;;39.65;33.33;;;19.70;99.90;;;;;;5074056;28;20263;-72
2022/08/17 05:14:24;;;;;;;38.72;33.70;;;19.70;99.90;;;;;;5076528;28;20236;-73
2022/08/17 05:17:13;;;;;;;37.80;33.05;;;19.70;99.90;;;;;;5077972;28;20182;-73
2022/08/17 05:20:00;;;;;;;39.03;33.15;;;19.80;99.90;;;;;;5058387;28;20220;-73
2022/08/17 05:22:53;;;;;;;39.28;33.75;;;19.80;99.90;;;;;;5057139;28;20221;-74
2022/08/17 05:25:46;;;;;;;39.38;33.10;;;19.80;99.90;;;;;;5062582;28;20206;-72
2022/08/17 05:28:37;;;;;;;42.00;34.45;;;19.80;99.90;;;;;;5078281;28;20205;-72
2022/08/17 05:31:23;;;;;;;44.20;34.65;;;19.80;99.90;;;;;;5058951;28;20240;-73
2022/08/17 05:34:08;;;;;;;42.10;34.40;;;19.80;99.90;;;;;;5064973;28;20295;-74
2022/08/17 05:36:52;;;;;;;41.95;35.20;;;19.80;99.90;;;;;;5064336;28;20185;-74
2022/08/17 05:39:39;;;;;;;41.22;35.05;;;19.80;99.90;;;;;;5059760;28;20209;-72
2022/08/17 05:42:24;;;;;;;49.10;36.03;;;19.80;99.90;;;;;;5077506;28;20213;-73
2022/08/17 05:45:10;;;;;;;42.10;36.10;;;19.90;99.90;;;;;;5060548;28;20260;-73
2022/08/17 05:47:54;;;;;;;46.55;36.53;;;19.90;99.90;;;;;;5082293;28;20228;-72
2022/08/17 05:51:12;;;;;;;44.97;35.75;;;19.80;99.90;;;;;;5068528;28;20266;-73
2022/08/17 05:54:14;;;;;;;45.08;36.30;;;19.80;99.90;;;;;;5061806;28;20217;-73
2022/08/17 05:57:29;;;;;;;41.70;35.80;;;19.80;99.90;;;;;;5080855;28;20205;-73
2022/08/17 06:00:19;;;;;;;44.20;35.75;;;19.90;99.90;;;;;;5064000;28;20233;-73
2022/08/17 06:03:21;;;;;;;48.00;36.83;;;19.80;99.90;;;;;;5083982;28;20266;-75
2022/08/17 06:06:50;;;;;;;42.03;34.88;;;19.80;99.90;;;;;;5048047;28;20252;-75
2022/08/17 06:09:43;;;;;;;43.93;36.90;;;19.80;99.90;;;;;;5045560;28;20259;-74
2022/08/17 06:12:37;;;;;;;39.92;34.83;;;19.80;99.90;;;;;;5052694;28;20257;-73
2022/08/17 06:15:31;;;;;;;43.78;35.05;;;19.90;99.90;;;;;;5045903;28;20197;-73
2022/08/17 06:18:17;;;;;;;39.85;33.97;;;19.90;99.90;;;;;;5037184;28;20270;-73
2022/08/17 06:21:05;;;;;;;39.90;35.55;;;19.90;99.90;;;;;;5060615;28;20206;-72
2022/08/17 06:24:00;;;;;;;42.05;36.50;;;20.00;99.90;;;;;;5059557;28;20249;-74
2022/08/17 06:26:46;;;;;;;44.42;36.55;;;20.00;99.90;;;;;;5064705;28;20286;-74
2022/08/17 06:29:45;;;;;;;39.63;35.25;;;20.10;99.90;;;;;;5049561;28;20270;-73
2022/08/17 06:32:30;;;;;;;40.45;35.08;;;20.10;99.90;;;;;;5054645;28;20276;-74
2022/08/17 06:35:23;;;;;;;43.58;34.65;;;20.20;99.90;;;;;;5067489;28;20221;-72
2022/08/17 06:38:36;;;;;;;38.33;33.45;;;20.20;99.90;;;;;;5054008;28;20201;-73
2022/08/17 06:41:44;;;;;;;43.47;34.15;;;20.20;99.90;;;;;;4992466;28;20194;-73
2022/08/17 06:44:37;;;;;;;40.92;35.97;;;20.30;99.90;;;;;;5051288;28;20261;-73
2022/08/17 06:47:54;;;;;;;40.17;34.75;;;20.30;99.90;;;;;;5043905;28;20229;-77
2022/08/17 06:50:46;;;;;;;39.67;33.53;;;20.40;99.90;;;;;;5040888;28;20631;-72
2022/08/17 06:53:44;;;;;;;38.42;32.92;;;20.40;99.90;;;;;;5060189;28;20599;-73
2022/08/17 06:56:47;;;;;;;37.70;33.25;;;20.50;99.90;;;;;;5045285;28;20217;-73
2022/08/17 06:59:44;;;;;;;41.80;34.42;;;20.50;99.90;;;;;;5050098;28;20198;-74
2022/08/17 07:02:58;;;;;;;37.85;32.72;;;20.60;99.90;;;;;;5049346;28;20218;-71
2022/08/17 07:05:56;;;;;;;39.90;33.42;;;20.60;99.90;;;;;;5052465;28;20193;-72
2022/08/17 07:08:40;;;;;;;34.92;31.15;;;20.70;99.90;;;;;;5061121;28;20551;-72
2022/08/17 07:11:31;;;;;;;37.92;32.35;;;20.80;99.90;;;;;;5046560;28;20182;-73
2022/08/17 07:14:28;;;;;;;37.33;32.47;;;20.80;99.90;;;;;;5059526;28;20245;-74
2022/08/17 07:17:17;;;;;;;33.55;29.67;;;20.80;99.90;;;;;;5039692;28;20234;-73
2022/08/17 07:20:07;;;;;;;34.05;30.45;;;20.90;99.90;;;;;;5055421;28;20197;-73
2022/08/17 07:23:07;;;;;;;38.15;32.75;;;20.90;99.90;;;;;;5044817;28;20272;-74
2022/08/17 07:25:51;;;;;;;37.45;30.73;;;20.90;99.90;;;;;;5040093;28;20187;-74
2022/08/17 07:28:35;;;;;;;33.95;29.92;;;21.00;99.90;;;;;;5063463;28;20209;-73
